Time;durP1;ratioP1;P1;durP2;ratioP2;P2;SDS_P1;SDS_P2;PMS_P1;PMS_P2;Temp;Humidity;BMP_temperature;BMP_pressure;BME280_temperature;BME280_humidity;BME280_pressure;Samples;Min_cycle;Max_cycle;Signal;HPM_P1;HPM_P2
2023/03/30 00:01:36;;;;;;;19.40;17.35;;;12.10;99.90;;;;;;4971788;28;20829;-94
2023/03/30 00:04:15;;;;;;;;;;;;;;;;;;;;;
2023/03/30 00:26:51;;;;;;;;;;;;;;;;;;;;;
2023/03/30 00:29:36;;;;;;;13.77;12.05;;;11.80;99.90;;;;;;4997951;28;20410;-95
2023/03/30 00:32:41;;;;;;;17.47;13.67;;;11.70;99.90;;;;;;4961598;28;20421;-95
2023/03/30 00:35:25;;;;;;;14.27;11.32;;;11.90;99.90;;;;;;4968431;28;20414;-96
2023/03/30 00:37:53;;;;;;;13.50;11.53;;;12.10;99.90;;;;;;4960161;28;20423;-95
2023/03/30 00:43:58;;;;;;;11.52;9.35;;;12.00;99.90;;;;;;5078984;23;20485;-95
2023/03/30 00:49:42;;;;;;;11.68;9.30;;;12.20;99.90;;;;;;4990226;28;20442;-95
2023/03/30 00:55:06;;;;;;;11.82;9.13;;;12.30;99.90;;;;;;4975618;28;20436;-95
2023/03/30 00:57:46;;;;;;;11.63;8.27;;;12.20;99.90;;;;;;5148128;23;20476;31
2023/03/30 01:00:13;;;;;;;10.05;7.57;;;12.30;99.90;;;;;;4917697;29;20430;-91
2023/03/30 01:02:48;;;;;;;11.35;8.63;;;12.30;99.90;;;;;;4934429;29;20762;-90
2023/03/30 01:05:14;;;;;;;10.35;8.02;;;12.30;99.90;;;;;;4934244;29;20831;-91
2023/03/30 01:07:42;;;;;;;8.40;7.13;;;12.40;99.90;;;;;;4935799;29;20456;-91
2023/03/30 01:10:09;;;;;;;10.07;7.13;;;12.60;99.90;;;;;;4933277;29;20460;-91
2023/03/30 01:12:36;;;;;;;10.27;7.68;;;12.40;99.90;;;;;;4935656;29;20421;-92
2023/03/30 01:15:02;;;;;;;9.02;7.55;;;12.90;99.90;;;;;;4932877;29;20401;-92
2023/03/30 01:18:14;;;;;;;10.33;7.57;;;12.50;99.90;;;;;;4935147;29;20422;-92
2023/03/30 01:21:00;;;;;;;9.77;7.45;;;12.50;99.90;;;;;;4935173;29;20476;-91
2023/03/30 01:24:14;;;;;;;10.20;7.40;;;12.40;99.90;;;;;;4933059;29;21068;-89
2023/03/30 01:27:10;;;;;;;10.80;8.05;;;12.40;99.90;;;;;;4899303;29;20449;-92
2023/03/30 01:30:07;;;;;;;9.70;7.43;;;12.40;99.90;;;;;;4918999;29;20425;-91
2023/03/30 01:32:43;;;;;;;10.77;8.40;;;12.40;99.90;;;;;;4836190;29;20469;-91
2023/03/30 01:35:47;;;;;;;10.00;7.88;;;12.40;99.90;;;;;;4934580;29;20429;-92
2023/03/30 01:38:34;;;;;;;9.73;8.20;;;12.30;99.90;;;;;;4919267;29;20533;-91
2023/03/30 01:41:12;;;;;;;12.20;7.30;;;12.30;99.90;;;;;;4917167;29;20450;-92
2023/03/30 01:43:56;;;;;;;9.90;7.13;;;12.70;99.90;;;;;;4918568;29;20421;-92
2023/03/30 01:46:44;;;;;;;10.57;7.35;;;12.30;99.90;;;;;;4934587;29;20453;-91
2023/03/30 01:49:17;;;;;;;9.50;6.50;;;12.20;99.90;;;;;;4917231;29;20496;-91
2023/03/30 01:52:16;;;;;;;11.02;7.00;;;12.50;99.90;;;;;;4934565;29;20448;-91
2023/03/30 01:54:50;;;;;;;10.65;7.22;;;12.30;99.90;;;;;;4902278;29;20458;-91
2023/03/30 01:57:29;;;;;;;9.40;6.78;;;12.20;99.90;;;;;;4933006;29;20448;-91
2023/03/30 02:00:05;;;;;;;10.40;6.22;;;12.30;99.90;;;;;;4947924;28;20434;-92
2023/03/30 02:02:32;;;;;;;10.23;6.40;;;12.30;99.90;;;;;;4948451;28;20968;-91
2023/03/30 02:05:01;;;;;;;7.97;5.45;;;12.30;99.90;;;;;;4951016;28;20421;-91
2023/03/30 02:07:30;;;;;;;8.63;5.60;;;12.30;99.90;;;;;;4949183;28;20414;-91
2023/03/30 02:10:01;;;;;;;10.40;5.57;;;12.30;99.90;;;;;;4949713;28;20469;-93
2023/03/30 02:12:29;;;;;;;8.98;5.20;;;12.60;99.90;;;;;;4950049;28;20421;-91
2023/03/30 02:15:03;;;;;;;8.93;5.57;;;12.20;99.90;;;;;;4948246;28;20948;-91
2023/03/30 02:17:30;;;;;;;10.25;5.20;;;12.40;99.90;;;;;;4950198;28;20509;-92
2023/03/30 02:19:56;;;;;;;8.85;4.93;;;12.20;99.90;;;;;;4948482;28;20777;-91
2023/03/30 02:22:25;;;;;;;8.38;4.80;;;12.50;99.90;;;;;;4950368;29;20947;-90
2023/03/30 02:24:54;;;;;;;9.13;4.72;;;12.10;99.90;;;;;;4949013;28;20760;-91
2023/03/30 02:27:22;;;;;;;10.57;4.75;;;12.30;99.90;;;;;;4949021;28;20422;-91
2023/03/30 02:29:48;;;;;;;9.90;4.85;;;12.10;99.90;;;;;;4949934;28;20440;-91
2023/03/30 02:32:22;;;;;;;8.52;4.57;;;12.10;99.90;;;;;;4948244;28;20425;-94
2023/03/30 02:34:58;;;;;;;10.57;4.68;;;12.20;99.90;;;;;;4950130;28;20444;-93
2023/03/30 02:38:02;;;;;;;8.43;4.70;;;11.90;99.90;;;;;;4932463;29;20822;-92
2023/03/30 02:40:51;;;;;;;8.68;4.35;;;12.10;99.90;;;;;;4932424;29;20813;-91
2023/03/30 02:43:42;;;;;;;8.77;4.38;;;12.10;99.90;;;;;;4949842;28;20425;-91
2023/03/30 02:46:18;;;;;;;7.23;4.30;;;12.10;99.90;;;;;;4932017;29;20425;-93
2023/03/30 02:48:53;;;;;;;7.20;3.92;;;12.20;99.90;;;;;;4949354;28;20548;-94
2023/03/30 02:51:45;;;;;;;8.13;3.65;;;12.10;99.90;;;;;;4933291;29;20449;-92
2023/03/30 02:54:47;;;;;;;7.55;3.90;;;12.20;99.90;;;;;;4947897;28;20461;-92
2023/03/30 02:57:21;;;;;;;8.50;3.63;;;12.10;99.90;;;;;;4948693;28;20523;-93
2023/03/30 03:00:01;;;;;;;7.05;3.35;;;12.10;99.90;;;;;;4933396;29;20426;-93
2023/03/30 03:02:38;;;;;;;6.82;3.60;;;12.20;99.90;;;;;;4931371;29;20433;-92
2023/03/30 03:05:07;;;;;;;7.27;3.57;;;12.60;99.90;;;;;;4949635;28;20490;-93
2023/03/30 03:07:33;;;;;;;8.93;3.58;;;12.20;99.90;;;;;;4947282;28;20433;-91
2023/03/30 03:09:59;;;;;;;6.93;4.00;;;12.40;99.90;;;;;;4949509;28;20437;-90
2023/03/30 03:12:27;;;;;;;8.85;3.90;;;12.40;99.90;;;;;;4947611;28;20437;-93
2023/03/30 03:14:53;;;;;;;10.05;3.75;;;12.20;99.90;;;;;;4948590;28;20417;-92
2023/03/30 03:17:21;;;;;;;9.63;4.32;;;12.10;99.90;;;;;;4949537;28;20771;-92
2023/03/30 03:19:49;;;;;;;10.40;4.60;;;12.40;99.90;;;;;;4947598;28;20401;-92
2023/03/30 03:22:16;;;;;;;8.60;4.10;;;12.30;99.90;;;;;;4949110;28;20417;-93
2023/03/30 03:24:43;;;;;;;8.02;4.32;;;12.00;99.90;;;;;;4947311;28;20413;-91
2023/03/30 03:27:10;;;;;;;9.27;4.30;;;12.10;99.90;;;;;;4949139;28;20461;-91
2023/03/30 03:29:36;;;;;;;9.52;4.43;;;12.10;99.90;;;;;;4947941;28;20835;-91
2023/03/30 03:32:02;;;;;;;9.70;3.80;;;12.10;99.90;;;;;;4947777;28;20542;-93
2023/03/30 03:34:30;;;;;;;10.15;4.25;;;11.90;99.90;;;;;;4947907;28;20425;-91
2023/03/30 03:36:57;;;;;;;8.77;3.67;;;12.10;99.90;;;;;;4946203;28;20564;-90
2023/03/30 03:39:23;;;;;;;6.93;3.63;;;12.40;99.90;;;;;;4948252;28;20461;-91
2023/03/30 03:41:49;;;;;;;8.17;3.90;;;12.00;99.90;;;;;;4946492;28;20438;-91
2023/03/30 03:44:15;;;;;;;8.98;4.28;;;11.90;99.90;;;;;;4949285;29;20425;-92
2023/03/30 03:46:41;;;;;;;8.10;3.85;;;12.00;99.90;;;;;;4947559;28;20428;-90
2023/03/30 03:49:06;;;;;;;8.95;3.80;;;11.90;99.90;;;;;;4948855;28;20418;-91
2023/03/30 03:51:32;;;;;;;9.77;4.00;;;12.10;99.90;;;;;;4947924;28;20445;-91
2023/03/30 03:53:58;;;;;;;11.98;3.50;;;12.10;99.90;;;;;;4947617;28;20425;-91
2023/03/30 03:56:25;;;;;;;9.25;3.72;;;12.30;99.90;;;;;;4948680;28;20410;-91
2023/03/30 03:58:51;;;;;;;8.95;3.35;;;11.80;99.90;;;;;;4946666;28;20496;-90
2023/03/30 04:01:17;;;;;;;10.65;3.65;;;12.00;99.90;;;;;;4949088;28;20452;-90
2023/03/30 04:03:43;;;;;;;7.50;3.42;;;12.00;99.90;;;;;;4946978;28;20823;-91
2023/03/30 04:06:09;;;;;;;10.50;3.63;;;12.00;99.90;;;;;;4948414;28;20445;-92
2023/03/30 04:08:35;;;;;;;10.13;3.08;;;12.30;99.90;;;;;;4947188;28;20418;-91
2023/03/30 04:11:06;;;;;;;8.32;2.70;;;11.80;99.90;;;;;;4947906;28;20808;-92
2023/03/30 04:13:33;;;;;;;8.02;2.60;;;12.10;99.90;;;;;;4948718;28;20469;-92
2023/03/30 04:16:00;;;;;;;7.10;2.67;;;11.90;99.90;;;;;;4946857;28;20406;-90
2023/03/30 04:18:30;;;;;;;7.25;2.97;;;11.90;99.90;;;;;;4948528;28;21098;-92
2023/03/30 04:20:58;;;;;;;8.80;2.38;;;11.90;99.90;;;;;;4946382;28;20436;-93
2023/03/30 04:23:29;;;;;;;8.90;2.30;;;11.90;99.90;;;;;;4949245;28;20428;-90
2023/03/30 04:26:06;;;;;;;9.70;2.80;;;11.90;99.90;;;;;;4950794;29;20416;-91
2023/03/30 04:28:33;;;;;;;8.13;2.05;;;11.90;99.90;;;;;;4951390;28;21314;-92
2023/03/30 04:31:01;;;;;;;9.55;2.22;;;12.00;99.90;;;;;;4952066;29;20441;-94
2023/03/30 04:33:27;;;;;;;8.70;2.35;;;11.90;99.90;;;;;;4949760;28;20522;-92
2023/03/30 04:35:53;;;;;;;10.15;2.17;;;12.00;99.90;;;;;;4951888;28;20538;-92
2023/03/30 04:38:21;;;;;;;9.55;2.00;;;12.00;99.90;;;;;;4949961;28;20435;-92
2023/03/30 04:40:50;;;;;;;8.10;2.20;;;12.20;99.90;;;;;;4952283;28;20421;-91
2023/03/30 04:43:20;;;;;;;12.10;2.30;;;12.10;99.90;;;;;;4950559;28;20410;-89
2023/03/30 04:45:50;;;;;;;7.97;1.73;;;12.30;99.90;;;;;;4950865;28;20731;-94
2023/03/30 04:48:16;;;;;;;8.65;1.70;;;12.40;99.90;;;;;;4951676;28;20492;-92
2023/03/30 04:50:43;;;;;;;10.15;1.80;;;12.30;99.90;;;;;;4949179;28;20576;-92
2023/03/30 04:53:09;;;;;;;10.07;2.00;;;12.30;99.90;;;;;;4951356;28;20425;-92
2023/03/30 04:55:35;;;;;;;8.63;2.00;;;12.30;99.90;;;;;;4949949;28;20457;-92
2023/03/30 04:58:01;;;;;;;8.45;1.90;;;12.30;99.90;;;;;;4951357;28;20508;-92
2023/03/30 05:00:27;;;;;;;10.77;2.42;;;12.80;99.90;;;;;;4949914;29;21265;-93
2023/03/30 05:02:53;;;;;;;8.23;1.90;;;12.30;99.90;;;;;;4935362;29;20429;-92
2023/03/30 05:05:19;;;;;;;10.70;2.20;;;12.30;99.90;;;;;;4951020;28;20445;-92
2023/03/30 05:07:45;;;;;;;9.50;2.40;;;12.30;99.90;;;;;;4949801;28;20462;-93
2023/03/30 05:10:11;;;;;;;10.05;2.55;;;12.00;99.90;;;;;;4951609;28;20436;-92
2023/03/30 05:12:36;;;;;;;12.03;2.50;;;12.50;99.90;;;;;;4949398;28;20414;-92
2023/03/30 05:15:03;;;;;;;11.03;2.27;;;11.90;99.90;;;;;;4951530;28;20895;-93
2023/03/30 05:17:32;;;;;;;11.80;2.50;;;12.20;99.90;;;;;;4949086;28;20421;-92
2023/03/30 05:19:58;;;;;;;10.55;2.53;;;12.30;99.90;;;;;;4950948;28;20724;-91
2023/03/30 05:22:24;;;;;;;9.63;2.22;;;12.50;99.90;;;;;;4950160;28;20512;-91
2023/03/30 05:24:51;;;;;;;15.55;3.05;;;12.20;99.90;;;;;;4950444;28;20440;-91
2023/03/30 05:27:17;;;;;;;11.13;2.60;;;12.30;99.90;;;;;;4951108;28;20501;-91
2023/03/30 05:29:43;;;;;;;11.20;2.58;;;12.30;99.90;;;;;;4948690;28;20418;-90
2023/03/30 05:32:08;;;;;;;10.53;2.30;;;12.40;99.90;;;;;;4951370;28;20418;-92
2023/03/30 05:34:34;;;;;;;10.57;2.60;;;12.00;99.90;;;;;;4949141;28;20515;-90
2023/03/30 05:37:00;;;;;;;8.18;2.03;;;12.10;99.90;;;;;;4950368;28;20410;-91
2023/03/30 05:39:26;;;;;;;9.67;2.23;;;12.20;99.90;;;;;;4949539;28;20474;-91
2023/03/30 05:41:52;;;;;;;9.93;2.53;;;12.30;99.90;;;;;;4950533;28;20564;-90
2023/03/30 05:44:18;;;;;;;11.60;2.78;;;12.10;99.90;;;;;;4950361;28;20426;-91
2023/03/30 05:46:43;;;;;;;13.10;2.97;;;12.30;99.90;;;;;;4948793;28;20417;-91
2023/03/30 05:49:09;;;;;;;11.07;2.50;;;12.40;99.90;;;;;;4950455;28;20762;-93
2023/03/30 05:57:42;;;;;;;;;;;;;;;;;;;;;
2023/03/30 06:11:34;;;;;;;9.15;2.10;;;12.30;99.90;;;;;;5287182;23;20430;-95
2023/03/30 06:52:20;;;;;;;10.75;2.00;;;12.50;99.90;;;;;;4962990;29;20445;-96
2023/03/30 06:55:33;;;;;;;10.97;2.20;;;12.40;99.90;;;;;;4950534;29;20499;-95
2023/03/30 06:58:08;;;;;;;11.68;2.30;;;12.40;99.90;;;;;;4894154;29;20414;-96
2023/03/30 07:00:34;;;;;;;11.40;2.40;;;12.60;99.90;;;;;;4923758;29;20426;-94
2023/03/30 07:03:00;;;;;;;13.45;2.85;;;12.40;99.90;;;;;;4929787;29;20432;-94
2023/03/30 07:05:46;;;;;;;13.77;2.80;;;12.80;99.90;;;;;;4930931;29;20750;-95
2023/03/30 07:08:13;;;;;;;15.73;2.50;;;12.80;99.90;;;;;;4937685;29;20447;-94
2023/03/30 07:10:45;;;;;;;16.35;2.78;;;12.90;99.90;;;;;;4931779;29;20437;-96
2023/03/30 07:17:52;;;;;;;14.50;2.53;;;12.60;99.90;;;;;;4914759;29;20488;-94
2023/03/30 07:20:36;;;;;;;15.45;3.35;;;12.50;99.90;;;;;;4871006;29;20425;-96
2023/03/30 07:23:29;;;;;;;13.50;2.63;;;13.20;99.90;;;;;;4925095;29;20531;-95
2023/03/30 07:26:06;;;;;;;;;;;;;;;;;;;;;
2023/03/30 07:28:50;;;;;;;17.45;2.80;;;12.40;99.90;;;;;;4899182;29;20415;-94
2023/03/30 07:31:34;;;;;;;14.18;2.80;;;12.70;99.90;;;;;;4923691;29;20481;-96
2023/03/30 07:34:50;;;;;;;19.73;3.03;;;12.50;99.90;;;;;;4930339;29;20424;-94
2023/03/30 07:37:47;;;;;;;16.15;2.72;;;12.30;99.90;;;;;;4936812;29;20439;-95
2023/03/30 07:40:16;;;;;;;17.13;3.50;;;12.30;99.90;;;;;;4929650;29;20414;-96
2023/03/30 07:42:51;;;;;;;18.55;3.30;;;12.30;99.90;;;;;;4947310;29;20449;-95
2023/03/30 07:45:39;;;;;;;16.40;3.42;;;12.30;99.90;;;;;;4965794;28;20429;-94
2023/03/30 07:48:46;;;;;;;21.45;3.70;;;12.30;99.90;;;;;;4928132;29;20417;-95
2023/03/30 07:52:06;;;;;;;18.40;3.70;;;12.20;99.90;;;;;;4935839;29;20469;-96
2023/03/30 07:58:25;;;;;;;20.58;4.25;;;12.10;99.90;;;;;;4952532;29;20421;-95
2023/03/30 08:01:25;;;;;;;20.08;3.75;;;12.10;99.90;;;;;;4965610;29;20428;-94
2023/03/30 08:03:59;;;;;;;21.27;3.55;;;12.10;99.90;;;;;;4948840;28;20425;-93
2023/03/30 08:06:37;;;;;;;24.15;4.05;;;12.40;99.90;;;;;;4953777;28;20444;-95
2023/03/30 08:09:20;;;;;;;23.77;4.32;;;12.10;99.90;;;;;;4948202;29;20420;-94
2023/03/30 08:12:18;;;;;;;22.63;3.97;;;12.10;99.90;;;;;;4946623;29;20449;-95
2023/03/30 08:14:44;;;;;;;25.65;4.57;;;12.10;99.90;;;;;;4968895;28;20421;-94
2023/03/30 08:17:13;;;;;;;22.65;4.60;;;12.10;99.90;;;;;;4942795;29;20428;-95
2023/03/30 08:20:51;;;;;;;21.88;4.13;;;12.90;99.90;;;;;;4952150;29;20414;-95
2023/03/30 08:23:23;;;;;;;24.05;4.53;;;12.10;99.90;;;;;;4957135;29;20412;-95
2023/03/30 08:25:51;;;;;;;24.08;4.88;;;12.20;99.90;;;;;;4962991;29;20504;-96
2023/03/30 08:28:54;;;;;;;23.27;4.70;;;12.40;99.90;;;;;;4943786;29;20413;-95
2023/03/30 08:31:20;;;;;;;22.58;4.20;;;12.30;99.90;;;;;;4948986;29;20434;-93
2023/03/30 08:33:49;;;;;;;24.77;4.45;;;12.60;99.90;;;;;;4948867;29;20919;-95
2023/03/30 08:36:40;;;;;;;25.27;4.70;;;12.30;99.90;;;;;;4948710;29;20457;-94
2023/03/30 08:39:17;;;;;;;22.60;4.32;;;12.20;99.90;;;;;;4951688;29;20749;-94
2023/03/30 08:42:35;;;;;;;23.73;4.70;;;12.10;99.90;;;;;;4952948;29;20422;-94
2023/03/30 08:45:17;;;;;;;28.50;4.90;;;12.00;99.90;;;;;;4952198;29;20472;-94
2023/03/30 08:48:41;;;;;;;26.33;4.68;;;12.10;99.90;;;;;;4953161;29;20429;-95
2023/03/30 08:51:38;;;;;;;23.52;4.50;;;12.20;99.90;;;;;;4950459;28;20508;-94
2023/03/30 08:58:02;;;;;;;20.33;3.65;;;12.40;99.90;;;;;;5042133;23;20457;-94
2023/03/30 09:01:02;;;;;;;21.70;4.50;;;13.00;99.90;;;;;;4972509;28;20419;-94
2023/03/30 09:04:01;;;;;;;24.38;4.50;;;12.80;99.90;;;;;;5011102;23;20536;-95
2023/03/30 09:06:50;;;;;;;19.35;4.10;;;13.10;99.90;;;;;;5007977;28;20472;-93
2023/03/30 09:09:23;;;;;;;21.15;3.35;;;13.20;99.90;;;;;;5011031;28;20431;-94
2023/03/30 09:12:33;;;;;;;19.02;3.50;;;13.10;99.90;;;;;;5009128;28;20440;-95
2023/03/30 09:15:10;;;;;;;22.55;3.72;;;13.40;99.90;;;;;;5000459;28;20413;-95
2023/03/30 09:17:46;;;;;;;19.00;3.20;;;13.50;99.90;;;;;;5000476;28;20409;-95
2023/03/30 09:20:29;;;;;;;19.08;3.70;;;13.80;99.90;;;;;;5004463;28;20421;-94
2023/03/30 09:23:03;;;;;;;20.85;3.45;;;13.60;99.90;;;;;;5016155;23;20401;-96
2023/03/30 09:25:43;;;;;;;17.77;2.47;;;13.80;99.90;;;;;;5068323;23;20437;-94
2023/03/30 09:28:54;;;;;;;16.90;3.15;;;13.90;99.90;;;;;;4979743;28;20408;-95
2023/03/30 09:31:24;;;;;;;18.38;2.88;;;13.50;99.90;;;;;;5025844;28;20432;-95
2023/03/30 09:34:22;;;;;;;16.65;3.28;;;14.10;99.90;;;;;;5005203;28;20444;-96
2023/03/30 09:37:17;;;;;;;16.23;2.70;;;13.60;99.90;;;;;;5004988;28;20402;-92
2023/03/30 09:40:26;;;;;;;17.83;2.85;;;13.60;99.90;;;;;;5186676;23;20491;-94
2023/03/30 09:43:18;;;;;;;16.15;2.78;;;13.50;99.90;;;;;;4963408;28;20507;-94
2023/03/30 09:45:44;;;;;;;17.98;3.40;;;13.50;99.90;;;;;;4976090;28;20446;-95
2023/03/30 09:48:10;;;;;;;16.83;2.83;;;13.50;99.90;;;;;;5191804;23;20436;-95
2023/03/30 09:50:39;;;;;;;15.63;2.43;;;13.40;99.90;;;;;;5005694;28;21085;-95
2023/03/30 09:56:20;;;;;;;20.77;3.25;;;13.30;99.90;;;;;;5038105;23;20451;-93
2023/03/30 09:58:46;;;;;;;16.83;2.80;;;13.80;99.90;;;;;;4993922;28;20412;-92
2023/03/30 10:01:19;;;;;;;15.60;2.70;;;13.50;99.90;;;;;;5003907;28;20507;-95
2023/03/30 10:04:05;;;;;;;14.05;2.90;;;13.50;99.90;;;;;;4994698;28;20413;-92
2023/03/30 10:06:38;;;;;;;15.95;2.70;;;13.40;99.90;;;;;;5000341;28;20416;-95
2023/03/30 10:09:27;;;;;;;12.80;1.88;;;13.60;99.90;;;;;;5002383;28;20396;-95
2023/03/30 10:11:57;;;;;;;13.65;2.22;;;13.40;99.90;;;;;;5005731;28;20433;-95
2023/03/30 10:15:23;;;;;;;;;;;;;;;;;;;;;
2023/03/30 10:17:55;;;;;;;17.08;2.78;;;13.70;99.90;;;;;;5083230;23;20454;-93
2023/03/30 10:20:52;;;;;;;17.63;2.88;;;13.30;99.90;;;;;;5018448;23;20449;-94
2023/03/30 10:23:27;;;;;;;22.13;3.70;;;13.80;99.90;;;;;;4990328;28;20479;-95
2023/03/30 10:26:12;;;;;;;17.80;3.67;;;13.80;99.90;;;;;;4981330;28;20411;-95
2023/03/30 10:29:15;;;;;;;22.27;3.78;;;13.70;99.90;;;;;;4990328;28;20434;-94
2023/03/30 10:35:03;;;;;;;;;;;;;;;;;;;;;
2023/03/30 10:38:25;;;;;;;20.48;3.25;;;13.70;99.90;;;;;;4934233;28;20421;-95
2023/03/30 10:41:01;;;;;;;20.70;3.67;;;13.90;99.90;;;;;;4981563;28;20409;-94
2023/03/30 10:43:35;;;;;;;22.83;4.27;;;13.90;99.90;;;;;;4973689;28;20430;-95
2023/03/30 10:46:14;;;;;;;22.67;4.37;;;13.80;99.90;;;;;;4965431;28;20948;-95
2023/03/30 10:49:04;;;;;;;23.10;4.40;;;13.60;99.90;;;;;;4970450;28;20485;-95
2023/03/30 10:51:45;;;;;;;20.75;4.10;;;13.80;99.90;;;;;;4964996;28;20438;-92
2023/03/30 10:54:38;;;;;;;21.42;3.60;;;13.80;99.90;;;;;;4970746;28;20504;-95
2023/03/30 10:57:50;;;;;;;21.83;4.00;;;13.90;99.90;;;;;;5126164;23;20442;-96
2023/03/30 11:00:45;;;;;;;19.85;3.47;;;14.00;99.90;;;;;;4910012;29;20950;-95
2023/03/30 11:05:50;;;;;;;20.40;3.20;;;14.20;99.90;;;;;;4977773;28;20412;-94
2023/03/30 11:08:35;;;;;;;18.10;3.45;;;14.00;99.90;;;;;;4966719;28;20462;-95
2023/03/30 11:11:03;;;;;;;20.98;3.65;;;14.00;99.90;;;;;;4968150;28;20443;-94
2023/03/30 11:13:42;;;;;;;19.63;3.17;;;14.10;99.90;;;;;;4947742;28;20489;-95
2023/03/30 11:16:51;;;;;;;;;;;;;;;;;;;;;
2023/03/30 11:20:16;;;;;;;18.98;3.30;;;14.00;99.90;;;;;;4961745;29;20429;-95
2023/03/30 11:23:06;;;;;;;18.77;3.40;;;14.40;99.90;;;;;;4957187;29;20554;-96
2023/03/30 11:25:45;;;;;;;18.98;3.53;;;14.10;99.90;;;;;;4944232;29;20422;-94
2023/03/30 11:28:41;;;;;;;19.55;3.33;;;14.10;99.90;;;;;;4935489;29;20856;-94
2023/03/30 11:31:46;;;;;;;18.70;4.03;;;14.50;99.90;;;;;;4942463;29;20445;-93
2023/03/30 11:34:27;;;;;;;17.67;3.60;;;14.40;99.90;;;;;;4907794;29;20531;-95
2023/03/30 11:37:20;;;;;;;17.17;3.28;;;14.70;99.90;;;;;;4944592;29;20410;-96
2023/03/30 11:40:07;;;;;;;19.20;3.65;;;14.40;99.90;;;;;;4945191;29;20421;-95
2023/03/30 11:43:04;;;;;;;18.77;3.33;;;14.60;99.90;;;;;;4943065;29;20424;-95
2023/03/30 11:46:13;;;;;;;18.00;3.92;;;14.90;99.90;;;;;;4935023;29;20430;-95
2023/03/30 11:49:17;;;;;;;20.23;3.70;;;14.70;99.90;;;;;;4942578;29;20494;-95
2023/03/30 11:52:20;;;;;;;19.25;3.20;;;14.80;99.90;;;;;;4945507;29;20449;-94
2023/03/30 11:55:24;;;;;;;21.63;4.93;;;14.90;99.90;;;;;;4956348;29;20426;-95
2023/03/30 11:58:21;;;;;;;19.25;3.90;;;15.00;99.90;;;;;;4940301;29;20430;-95
2023/03/30 12:01:07;;;;;;;23.20;3.92;;;15.20;99.90;;;;;;4940065;29;20477;-94
2023/03/30 12:04:19;;;;;;;18.80;3.63;;;15.30;99.90;;;;;;4938002;29;20418;-92
2023/03/30 12:07:00;;;;;;;19.50;3.75;;;15.40;99.90;;;;;;4900620;29;20976;-95
2023/03/30 12:10:00;;;;;;;21.02;4.10;;;15.30;99.90;;;;;;4899527;29;20471;-94
2023/03/30 12:12:58;;;;;;;19.80;3.60;;;15.20;99.20;;;;;;4903943;29;20443;-94
2023/03/30 12:15:29;;;;;;;19.73;3.55;;;15.40;99.90;;;;;;4898923;29;20429;-94
2023/03/30 12:18:07;;;;;;;19.63;4.18;;;15.60;99.90;;;;;;4900037;29;21024;-94
2023/03/30 12:20:47;;;;;;;22.60;4.03;;;16.10;99.90;;;;;;4897974;29;20431;-93
2023/03/30 12:23:34;;;;;;;21.88;3.88;;;16.40;99.60;;;;;;4882370;29;20425;-96
2023/03/30 12:26:12;;;;;;;19.15;3.47;;;16.70;96.20;;;;;;4896345;29;20508;-95
2023/03/30 12:29:17;;;;;;;17.73;3.55;;;17.00;94.90;;;;;;4899418;29;20435;-94
2023/03/30 12:31:55;;;;;;;25.00;3.83;;;16.70;92.10;;;;;;4927725;29;20488;-96
2023/03/30 12:34:33;;;;;;;22.13;4.07;;;17.10;92.10;;;;;;4935897;29;20505;-94
2023/03/30 12:37:11;;;;;;;19.90;3.58;;;17.30;93.20;;;;;;4938376;29;20430;-94
2023/03/30 12:40:07;;;;;;;19.27;3.55;;;17.10;91.50;;;;;;4938344;29;20414;-95
2023/03/30 12:43:07;;;;;;;21.38;3.55;;;17.50;89.20;;;;;;4940887;29;20425;-95
2023/03/30 12:45:36;;;;;;;18.17;3.65;;;17.30;83.70;;;;;;4935740;29;20418;-95
2023/03/30 12:48:35;;;;;;;19.08;3.30;;;16.90;86.30;;;;;;4939588;29;20413;-95
2023/03/30 12:51:20;;;;;;;18.60;3.97;;;17.10;90.20;;;;;;4907990;29;20492;-93
2023/03/30 12:53:55;;;;;;;18.95;3.95;;;17.20;89.50;;;;;;4937416;29;20559;-93
2023/03/30 12:56:35;;;;;;;16.20;3.72;;;17.70;91.30;;;;;;4939941;29;20425;-94
2023/03/30 12:59:25;;;;;;;18.33;3.28;;;18.10;81.40;;;;;;4938088;29;20430;-95
2023/03/30 13:02:34;;;;;;;16.95;3.70;;;18.40;82.70;;;;;;4941634;29;20551;-96
2023/03/30 13:05:16;;;;;;;18.40;4.00;;;18.50;74.70;;;;;;4939596;29;20434;-95
2023/03/30 13:07:42;;;;;;;23.83;4.50;;;18.50;73.00;;;;;;4942018;29;20540;-94
2023/03/30 13:10:30;;;;;;;18.87;3.57;;;18.20;74.00;;;;;;4938713;29;20464;-96
2023/03/30 13:13:00;;;;;;;21.38;4.35;;;18.10;74.40;;;;;;4940728;29;20921;-93
2023/03/30 13:15:38;;;;;;;18.58;3.38;;;17.60;73.70;;;;;;4938298;29;21460;-94
2023/03/30 13:18:29;;;;;;;18.10;3.72;;;17.40;79.70;;;;;;4955160;29;20924;-93
2023/03/30 13:21:03;;;;;;;20.90;3.53;;;17.00;82.90;;;;;;4941341;29;20525;-95
2023/03/30 13:23:36;;;;;;;25.38;4.35;;;17.00;84.20;;;;;;4938146;29;20429;-92
2023/03/30 13:26:24;;;;;;;23.70;4.60;;;17.10;91.20;;;;;;4937695;29;20426;-92
2023/03/30 13:29:09;;;;;;;20.38;3.97;;;17.00;90.70;;;;;;4938280;29;20813;-95
2023/03/30 13:31:53;;;;;;;17.50;3.63;;;17.00;90.00;;;;;;4941854;29;20465;-94
2023/03/30 13:34:45;;;;;;;22.17;5.38;;;16.90;89.80;;;;;;4940692;29;20450;-94
2023/03/30 13:37:16;;;;;;;19.83;4.97;;;16.60;90.10;;;;;;4938523;29;20445;-94
2023/03/30 13:40:06;;;;;;;20.45;4.43;;;16.90;91.00;;;;;;4938250;28;20422;-95
2023/03/30 13:42:59;;;;;;;20.20;4.43;;;17.40;88.90;;;;;;4938344;29;20460;-95
2023/03/30 13:45:33;;;;;;;19.13;3.83;;;16.70;88.50;;;;;;4937943;29;20477;-93
2023/03/30 13:48:26;;;;;;;19.70;3.88;;;16.80;89.60;;;;;;4937043;29;20418;-93
2023/03/30 13:50:59;;;;;;;22.50;4.18;;;16.90;90.10;;;;;;4937590;29;20442;-96
2023/03/30 13:53:37;;;;;;;21.23;4.63;;;17.10;89.20;;;;;;4935985;29;20762;-94
2023/03/30 13:56:06;;;;;;;20.80;4.32;;;16.90;91.10;;;;;;4937029;28;20485;-93
2023/03/30 13:58:48;;;;;;;19.17;3.92;;;17.00;91.80;;;;;;4933079;29;20417;-96
2023/03/30 14:01:19;;;;;;;20.02;4.00;;;17.40;87.50;;;;;;4939494;29;20452;-92
2023/03/30 14:03:55;;;;;;;20.85;4.07;;;17.30;81.80;;;;;;4937628;29;20468;-94
2023/03/30 14:06:33;;;;;;;21.65;3.90;;;17.30;82.90;;;;;;4937392;29;20938;-93
2023/03/30 14:09:04;;;;;;;25.48;4.57;;;17.00;90.10;;;;;;4933206;29;20414;-94
2023/03/30 14:11:44;;;;;;;22.33;4.47;;;16.80;91.80;;;;;;4927438;29;20442;-95
2023/03/30 14:14:28;;;;;;;20.45;4.07;;;17.20;90.00;;;;;;4936257;29;20788;-95
2023/03/30 14:16:56;;;;;;;22.80;4.63;;;16.80;86.80;;;;;;4933068;29;20916;-93
2023/03/30 14:19:42;;;;;;;23.90;4.60;;;16.70;92.40;;;;;;4936100;29;20500;-93
2023/03/30 14:22:15;;;;;;;25.45;4.30;;;16.60;92.60;;;;;;4935403;29;20422;-92
2023/03/30 14:24:57;;;;;;;21.42;3.92;;;16.90;92.20;;;;;;4936153;29;20418;-91
2023/03/30 14:27:31;;;;;;;24.60;4.50;;;16.20;94.40;;;;;;4934392;29;20414;-92
2023/03/30 14:29:57;;;;;;;24.63;4.18;;;16.60;94.20;;;;;;4933554;29;20473;-91
2023/03/30 14:32:29;;;;;;;21.52;4.10;;;16.20;94.80;;;;;;4932725;29;20453;-95
2023/03/30 14:34:55;;;;;;;23.02;4.40;;;15.70;96.40;;;;;;4932890;29;20422;-94
2023/03/30 14:37:33;;;;;;;30.43;5.03;;;16.10;98.70;;;;;;4932488;29;20406;-94
2023/03/30 14:40:11;;;;;;;20.15;4.57;;;16.10;99.90;;;;;;4932874;29;20414;-95
2023/03/30 14:42:42;;;;;;;22.58;4.93;;;15.90;99.30;;;;;;4935508;29;20493;-94
2023/03/30 14:45:18;;;;;;;26.30;4.82;;;15.80;98.80;;;;;;4932345;29;20422;-93
2023/03/30 14:47:46;;;;;;;24.38;4.43;;;15.60;99.10;;;;;;4937997;29;20394;-93
2023/03/30 14:50:15;;;;;;;22.77;4.40;;;15.50;98.80;;;;;;4933316;29;20466;-94
2023/03/30 14:52:45;;;;;;;28.60;5.00;;;15.00;99.90;;;;;;4935294;29;20501;-95
2023/03/30 14:55:15;;;;;;;25.33;5.47;;;15.50;99.90;;;;;;4931412;29;20421;-92
2023/03/30 14:57:42;;;;;;;27.58;4.68;;;15.30;99.90;;;;;;4937107;29;20421;-93
2023/03/30 15:00:21;;;;;;;24.58;4.95;;;15.50;99.90;;;;;;4936129;29;20820;-95
2023/03/30 15:02:59;;;;;;;27.33;5.85;;;15.30;99.90;;;;;;4930866;29;20432;-93
2023/03/30 15:05:31;;;;;;;28.52;5.53;;;15.80;99.90;;;;;;4933434;29;20441;-92
2023/03/30 15:07:57;;;;;;;26.40;4.82;;;15.40;99.90;;;;;;4929794;29;20912;-94
2023/03/30 15:11:11;;;;;;;29.08;6.05;;;15.50;99.90;;;;;;4934096;29;20444;-92
2023/03/30 15:13:45;;;;;;;25.73;4.50;;;15.10;99.90;;;;;;4897490;29;20425;-94
2023/03/30 15:16:24;;;;;;;28.97;5.53;;;14.90;99.90;;;;;;4937093;29;20426;-94
2023/03/30 15:18:53;;;;;;;28.42;5.28;;;15.20;99.90;;;;;;4935768;29;20425;-93
2023/03/30 15:21:21;;;;;;;27.92;5.30;;;15.10;99.90;;;;;;4930240;29;20425;-93
2023/03/30 15:23:52;;;;;;;24.52;5.22;;;14.90;99.90;;;;;;4935759;29;20406;-95
2023/03/30 15:26:18;;;;;;;26.90;4.70;;;14.90;99.90;;;;;;4934719;29;20726;-93
2023/03/30 15:28:56;;;;;;;25.23;4.80;;;15.00;99.90;;;;;;4938215;29;20402;-91
2023/03/30 15:31:24;;;;;;;27.77;5.67;;;14.80;99.90;;;;;;4934106;29;20441;-91
2023/03/30 15:34:04;;;;;;;23.48;4.70;;;14.70;99.90;;;;;;4937310;29;20453;-92
2023/03/30 15:36:36;;;;;;;27.65;5.05;;;14.70;99.90;;;;;;4936375;28;20461;-94